createdAt,value
2018-08-06T00:02:18.551Z,99.90
2018-08-06T00:04:47.341Z,99.90
2018-08-06T00:07:15.998Z,99.90
2018-08-06T00:09:44.608Z,99.90
2018-08-06T00:12:13.230Z,99.90
2018-08-06T00:14:41.859Z,99.90
2018-08-06T00:17:10.435Z,99.90
2018-08-06T00:19:39.579Z,99.90
2018-08-06T00:22:08.348Z,99.90
2018-08-06T00:24:36.978Z,99.90
2018-08-06T00:27:06.266Z,99.90
2018-08-06T00:29:34.867Z,99.90
2018-08-06T00:32:03.467Z,99.90
2018-08-06T00:34:32.048Z,99.90
2018-08-06T00:37:00.798Z,99.90
2018-08-06T00:39:29.395Z,99.90
2018-08-06T00:41:57.978Z,99.90
2018-08-06T00:44:26.562Z,99.90
2018-08-06T00:46:55.141Z,99.90
2018-08-06T00:49:23.914Z,99.90
2018-08-06T00:51:52.509Z,99.90
2018-08-06T00:54:21.226Z,99.90
2018-08-06T00:56:49.786Z,99.90
2018-08-06T00:59:18.371Z,99.90
2018-08-06T01:01:46.935Z,99.90
2018-08-06T01:04:15.519Z,99.90
2018-08-06T01:06:44.147Z,99.90
2018-08-06T01:09:12.742Z,99.90
2018-08-06T01:11:41.527Z,99.90
2018-08-06T01:14:10.129Z,99.90
2018-08-06T01:16:38.742Z,99.90
2018-08-06T01:19:07.420Z,99.90
2018-08-06T01:21:36.148Z,99.90
2018-08-06T01:26:32.978Z,99.90
2018-08-06T01:29:01.767Z,99.90
2018-08-06T01:31:30.326Z,99.90
2018-08-06T01:33:58.880Z,99.90
2018-08-06T01:36:27.488Z,99.90
2018-08-06T01:38:56.034Z,99.90
2018-08-06T01:41:24.620Z,99.90
2018-08-06T01:46:21.483Z,99.90
2018-08-06T01:48:50.210Z,99.90
2018-08-06T01:51:18.810Z,99.90
2018-08-06T01:53:47.490Z,99.90
2018-08-06T01:56:16.056Z,99.90
2018-08-06T01:58:44.639Z,99.90
2018-08-06T02:01:13.208Z,99.90
2018-08-06T02:03:41.908Z,99.90
2018-08-06T02:06:10.462Z,99.90
2018-08-06T02:08:39.027Z,99.90
2018-08-06T02:11:07.656Z,99.90
2018-08-06T02:13:36.307Z,99.90
2018-08-06T02:18:33.407Z,99.90
2018-08-06T02:21:02.330Z,99.90
2018-08-06T02:23:30.954Z,99.90
2018-08-06T02:25:59.579Z,99.90
2018-08-06T02:28:28.202Z,99.90
2018-08-06T02:30:56.787Z,99.90
2018-08-06T02:33:25.363Z,99.90
2018-08-06T02:35:53.947Z,99.90
2018-08-06T02:38:22.792Z,99.90
2018-08-06T02:40:51.483Z,99.90
2018-08-06T02:43:20.067Z,99.90
2018-08-06T02:45:48.853Z,99.90
2018-08-06T02:48:17.498Z,99.90
2018-08-06T02:53:14.324Z,99.90
2018-08-06T02:55:42.980Z,99.90
2018-08-06T02:58:11.574Z,99.90
2018-08-06T03:00:40.300Z,99.90
2018-08-06T03:03:08.872Z,99.90
2018-08-06T03:05:37.489Z,99.90
2018-08-06T03:10:34.642Z,99.90
2018-08-06T03:13:03.279Z,99.90
2018-08-06T03:15:31.897Z,99.90
2018-08-06T03:18:00.675Z,99.90
2018-08-06T03:20:29.247Z,99.90
2018-08-06T03:22:57.803Z,99.90
2018-08-06T03:25:26.378Z,99.90
2018-08-06T03:27:55.075Z,99.90
2018-08-06T03:30:23.686Z,99.90
2018-08-06T03:32:52.268Z,99.90
2018-08-06T03:35:21.063Z,99.90
2018-08-06T03:37:49.622Z,99.90
2018-08-06T03:40:18.325Z,99.90
2018-08-06T03:42:46.856Z,99.90
2018-08-06T03:45:15.456Z,99.90
2018-08-06T03:47:44.127Z,99.90
2018-08-06T03:52:42.760Z,99.90
2018-08-06T03:55:12.070Z,99.90
2018-08-06T03:57:41.246Z,99.90
2018-08-06T04:00:13.442Z,99.90
2018-08-06T04:02:42.834Z,99.90
2018-08-06T04:05:13.774Z,99.90
2018-08-06T04:07:42.417Z,99.90
2018-08-06T04:12:40.852Z,99.90
2018-08-06T04:15:10.156Z,99.90
2018-08-06T04:17:38.970Z,99.90
2018-08-06T04:20:08.930Z,99.90
2018-08-06T04:25:06.115Z,99.90
2018-08-06T04:27:35.123Z,99.90
2018-08-06T04:30:05.125Z,99.90
2018-08-06T04:32:33.720Z,99.90
2018-08-06T04:35:02.391Z,99.90
2018-08-06T04:37:31.031Z,99.90
2018-08-06T04:39:59.627Z,99.90
2018-08-06T04:42:28.253Z,99.90
2018-08-06T04:44:57.082Z,99.90
2018-08-06T04:47:25.713Z,99.90
2018-08-06T04:49:54.368Z,99.90
2018-08-06T04:52:23.244Z,99.90
2018-08-06T04:54:52.322Z,99.90
2018-08-06T04:57:20.986Z,99.90
2018-08-06T04:59:49.588Z,99.90
2018-08-06T05:02:18.266Z,99.90
2018-08-06T05:04:47.106Z,99.90
2018-08-06T05:12:13.586Z,98.60
2018-08-06T05:17:10.451Z,97.30
2018-08-06T05:19:39.063Z,99.40
2018-08-06T05:22:08.124Z,99.40
2018-08-06T05:27:05.051Z,93.90
2018-08-06T05:29:33.705Z,95.70
2018-08-06T05:32:02.375Z,90.80
2018-08-06T05:34:31.026Z,89.40
2018-08-06T05:36:59.666Z,86.50
2018-08-06T05:39:28.342Z,84.60
2018-08-06T05:41:57.015Z,85.30
2018-08-06T05:44:25.719Z,83.60
2018-08-06T05:46:54.418Z,93.20
2018-08-06T05:49:23.133Z,89.50
2018-08-06T05:51:51.755Z,92.30
2018-08-06T05:54:20.433Z,91.40
2018-08-06T05:59:17.563Z,91.20
2018-08-06T06:01:46.219Z,90.20
2018-08-06T06:04:14.862Z,91.10
2018-08-06T06:06:43.640Z,86.10
2018-08-06T06:14:09.495Z,78.90
2018-08-06T06:16:38.167Z,78.30
2018-08-06T06:19:07.204Z,73.60
2018-08-06T06:21:35.836Z,72.90
2018-08-06T06:24:04.497Z,74.30
2018-08-06T06:26:33.185Z,74.10
2018-08-06T06:29:01.846Z,73.90
2018-08-06T06:31:30.447Z,71.30
2018-08-06T06:33:59.327Z,73.30
2018-08-06T06:36:28.529Z,69.50
2018-08-06T06:38:57.217Z,68.30
2018-08-06T06:41:25.855Z,69.80
2018-08-06T06:43:54.547Z,68.30
2018-08-06T06:48:51.475Z,66.20
2018-08-06T06:51:20.055Z,64.80
2018-08-06T06:53:48.670Z,65.80
2018-08-06T06:56:17.327Z,62.90
2018-08-06T06:58:45.926Z,66.10
2018-08-06T07:01:14.587Z,63.40
2018-08-06T07:03:43.215Z,60.40
2018-08-06T07:08:40.355Z,56.80
2018-08-06T07:11:09.031Z,56.40
2018-08-06T07:13:37.800Z,55.50
2018-08-06T07:16:06.780Z,57.70
2018-08-06T07:18:35.453Z,59.20
2018-08-06T07:21:04.398Z,57.50
2018-08-06T07:23:33.042Z,56.60
2018-08-06T07:26:01.759Z,56.80
2018-08-06T07:28:30.433Z,59.20
2018-08-06T07:30:59.049Z,58.70
2018-08-06T07:33:27.914Z,57.60
2018-08-06T07:35:56.515Z,55.80
2018-08-06T07:38:25.066Z,56.60
2018-08-06T07:40:53.646Z,56.80
2018-08-06T07:43:22.279Z,57.20
2018-08-06T07:45:50.925Z,57.70
2018-08-06T07:48:19.542Z,58.10
2018-08-06T07:53:16.430Z,57.50
2018-08-06T07:55:45.023Z,58.70
2018-08-06T07:58:13.619Z,61.50
2018-08-06T08:00:42.223Z,61.10
2018-08-06T08:03:11.791Z,59.90
2018-08-06T08:05:40.450Z,59.40
2018-08-06T08:08:09.167Z,59.80
2018-08-06T08:10:37.775Z,58.10
2018-08-06T08:13:06.411Z,58.50
2018-08-06T08:15:35.284Z,57.10
2018-08-06T08:18:03.974Z,57.50
2018-08-06T08:20:32.598Z,58.30
2018-08-06T08:23:01.276Z,59.00
2018-08-06T08:25:30.129Z,59.00
2018-08-06T08:27:58.922Z,53.20
2018-08-06T08:30:27.595Z,55.00
2018-08-06T08:32:56.276Z,55.10
2018-08-06T08:35:30.707Z,57.90
2018-08-06T08:37:59.474Z,57.90
2018-08-06T08:40:28.463Z,55.20
2018-08-06T08:42:57.053Z,52.90
2018-08-06T08:45:25.734Z,54.40
2018-08-06T08:47:54.359Z,55.00
2018-08-06T08:50:22.919Z,53.00
2018-08-06T08:52:51.511Z,52.60
2018-08-06T08:55:20.827Z,53.50
2018-08-06T08:57:49.554Z,50.40
2018-08-06T09:00:20.101Z,50.00
2018-08-06T09:02:49.541Z,49.00
2018-08-06T09:05:18.874Z,49.80
2018-08-06T09:07:47.774Z,49.50
2018-08-06T09:12:46.113Z,48.40
2018-08-06T09:15:22.055Z,49.90
2018-08-06T09:17:50.699Z,52.20
2018-08-06T09:20:19.338Z,50.20
2018-08-06T09:22:48.443Z,47.20
2018-08-06T09:25:17.056Z,45.90
2018-08-06T09:27:47.326Z,45.00
2018-08-06T09:30:18.838Z,46.30
2018-08-06T09:35:18.709Z,46.30
2018-08-06T09:37:47.399Z,44.00
2018-08-06T09:40:17.546Z,43.50
2018-08-06T09:42:47.031Z,44.70
2018-08-06T09:45:16.862Z,46.50
2018-08-06T09:47:47.478Z,43.60
2018-08-06T09:50:16.874Z,45.00
2018-08-06T09:52:46.487Z,46.90
2018-08-06T09:55:19.183Z,43.70
2018-08-06T09:57:48.607Z,43.00
2018-08-06T10:00:23.819Z,44.30
2018-08-06T10:02:53.699Z,44.60
2018-08-06T10:05:23.435Z,45.40
2018-08-06T10:07:52.462Z,45.60
2018-08-06T10:10:21.168Z,46.10
2018-08-06T10:12:49.782Z,46.70
2018-08-06T10:15:19.010Z,45.60
2018-08-06T10:17:49.028Z,44.50
2018-08-06T10:20:18.984Z,44.20
2018-08-06T10:22:47.663Z,43.80
2018-08-06T10:27:45.710Z,42.70
2018-08-06T10:30:23.107Z,44.40
2018-08-06T10:32:51.628Z,42.20
2018-08-06T10:35:20.925Z,44.30
2018-08-06T10:37:49.579Z,42.90
2018-08-06T10:40:20.319Z,44.00
2018-08-06T10:42:49.414Z,44.10
2018-08-06T10:45:19.209Z,42.00
2018-08-06T10:47:48.112Z,44.70
2018-08-06T10:50:16.770Z,42.20
2018-08-06T10:52:45.424Z,42.30
2018-08-06T10:55:14.326Z,42.00
2018-08-06T10:57:43.992Z,42.60
2018-08-06T11:00:15.269Z,43.50
2018-08-06T11:02:44.089Z,42.20
2018-08-06T11:05:13.725Z,41.40
2018-08-06T11:07:42.342Z,42.50
2018-08-06T11:10:17.562Z,43.10
2018-08-06T11:12:46.223Z,39.50
2018-08-06T11:15:23.436Z,41.90
2018-08-06T11:17:52.122Z,44.10
2018-08-06T11:20:21.405Z,39.90
2018-08-06T11:22:50.091Z,39.30
2018-08-06T11:25:20.608Z,39.00
2018-08-06T11:27:49.574Z,39.80
2018-08-06T11:30:21.014Z,38.80
2018-08-06T11:32:50.140Z,38.20
2018-08-06T11:35:19.298Z,37.90
2018-08-06T11:37:47.910Z,37.90
2018-08-06T11:40:17.221Z,38.40
2018-08-06T11:42:46.823Z,37.00
2018-08-06T11:45:16.640Z,40.50
2018-08-06T11:47:45.276Z,39.50
2018-08-06T11:50:13.871Z,38.70
2018-08-06T11:52:42.484Z,36.60
2018-08-06T11:55:11.287Z,38.90
2018-08-06T11:57:40.063Z,39.50
2018-08-06T12:00:15.118Z,40.30
2018-08-06T12:02:43.903Z,39.30
2018-08-06T12:05:12.535Z,39.00
2018-08-06T12:10:12.598Z,35.90
2018-08-06T12:12:41.455Z,39.10
2018-08-06T12:17:39.893Z,35.90
2018-08-06T12:20:11.682Z,38.80
2018-08-06T12:22:41.773Z,36.40
2018-08-06T12:25:12.021Z,35.70
2018-08-06T12:27:41.193Z,35.20
2018-08-06T12:30:13.561Z,37.70
2018-08-06T12:32:42.764Z,36.20
2018-08-06T12:35:11.471Z,39.50
2018-08-06T12:37:40.313Z,38.70
2018-08-06T12:40:12.391Z,38.20
2018-08-06T12:42:41.180Z,38.90
2018-08-06T12:45:11.007Z,38.90
2018-08-06T12:47:40.243Z,35.50
2018-08-06T12:50:10.476Z,37.20
2018-08-06T12:52:39.946Z,35.70
2018-08-06T12:55:10.193Z,34.90
2018-08-06T12:57:39.799Z,36.80
2018-08-06T13:02:39.126Z,33.60
2018-08-06T13:07:36.052Z,33.10
2018-08-06T13:10:05.027Z,35.20
2018-08-06T13:12:33.846Z,33.50
2018-08-06T13:15:02.407Z,34.70
2018-08-06T13:17:31.007Z,35.20
2018-08-06T13:19:59.890Z,35.50
2018-08-06T13:22:28.514Z,35.30
2018-08-06T13:24:57.093Z,34.40
2018-08-06T13:27:25.667Z,35.90
2018-08-06T13:29:54.285Z,36.30
2018-08-06T13:32:23.142Z,36.30
2018-08-06T13:34:51.723Z,36.80
2018-08-06T13:37:20.340Z,36.00
2018-08-06T13:42:17.182Z,34.10
2018-08-06T13:44:45.821Z,34.30
2018-08-06T13:47:14.399Z,37.50
2018-08-06T13:49:42.999Z,34.40
2018-08-06T13:52:11.596Z,34.30
2018-08-06T13:57:08.603Z,36.90
2018-08-06T14:02:05.931Z,37.50
2018-08-06T14:04:34.565Z,36.70
2018-08-06T14:07:03.221Z,36.90
2018-08-06T14:09:31.754Z,37.60
2018-08-06T14:12:00.313Z,36.60
2018-08-06T14:14:28.876Z,36.40
2018-08-06T14:16:57.554Z,36.40
2018-08-06T14:19:26.122Z,37.10
2018-08-06T14:21:54.695Z,38.20
2018-08-06T14:24:23.287Z,36.30
2018-08-06T14:26:51.867Z,35.10
2018-08-06T14:29:20.434Z,35.90
2018-08-06T14:31:49.020Z,36.70
2018-08-06T14:34:17.724Z,36.90
2018-08-06T14:36:46.280Z,36.70
2018-08-06T14:39:15.130Z,36.20
2018-08-06T14:41:43.740Z,38.80
2018-08-06T14:44:12.410Z,39.90
2018-08-06T14:46:40.939Z,41.70
2018-08-06T14:49:09.632Z,37.60
2018-08-06T14:51:38.250Z,38.70
2018-08-06T14:54:06.896Z,39.20
2018-08-06T14:56:35.677Z,39.70
2018-08-06T14:59:04.375Z,38.50
2018-08-06T15:01:32.932Z,40.20
2018-08-06T15:04:01.548Z,39.90
2018-08-06T15:06:30.191Z,40.50
2018-08-06T15:11:27.120Z,40.80
2018-08-06T15:13:55.814Z,39.60
2018-08-06T15:16:24.404Z,38.60
2018-08-06T15:18:52.971Z,39.30
2018-08-06T15:21:21.531Z,39.00
2018-08-06T15:23:50.080Z,40.00
2018-08-06T15:26:18.703Z,40.20
2018-08-06T15:28:47.307Z,40.50
2018-08-06T15:31:15.935Z,42.10
2018-08-06T15:33:44.547Z,42.40
2018-08-06T15:36:13.208Z,41.50
2018-08-06T15:38:41.839Z,41.90
2018-08-06T15:41:10.894Z,42.90
2018-08-06T15:43:39.500Z,41.60
2018-08-06T15:46:08.122Z,43.00
2018-08-06T15:51:04.934Z,44.10
2018-08-06T15:53:33.793Z,43.10
2018-08-06T15:56:02.372Z,43.60
2018-08-06T15:58:30.946Z,44.10
2018-08-06T16:00:59.530Z,43.20
2018-08-06T16:03:28.429Z,43.20
2018-08-06T16:05:57.015Z,43.50
2018-08-06T16:08:25.582Z,45.10
2018-08-06T16:10:54.242Z,44.00
2018-08-06T16:15:51.034Z,44.20
2018-08-06T16:18:19.608Z,43.30
2018-08-06T16:20:48.191Z,43.20
2018-08-06T16:23:16.744Z,45.20
2018-08-06T16:25:45.398Z,44.30
2018-08-06T16:28:14.090Z,43.40
2018-08-06T16:30:42.718Z,43.60
2018-08-06T16:33:11.385Z,44.00
2018-08-06T16:35:40.084Z,44.30
2018-08-06T16:40:36.957Z,46.30
2018-08-06T16:45:33.862Z,46.20
2018-08-06T16:48:02.487Z,46.80
2018-08-06T16:50:31.115Z,46.30
2018-08-06T16:52:59.712Z,45.70
2018-08-06T16:55:28.296Z,46.30
2018-08-06T16:57:56.906Z,48.50
2018-08-06T17:00:25.505Z,48.80
2018-08-06T17:02:54.277Z,47.50
2018-08-06T17:05:23.148Z,47.80
2018-08-06T17:07:51.930Z,47.50
2018-08-06T17:10:21.410Z,47.70
2018-08-06T17:12:51.516Z,48.20
2018-08-06T17:17:50.339Z,49.10
2018-08-06T17:22:50.192Z,49.00
2018-08-06T17:25:19.038Z,49.00
2018-08-06T17:30:16.569Z,49.30
2018-08-06T17:32:45.596Z,49.90
2018-08-06T17:35:15.012Z,49.90
2018-08-06T17:40:15.123Z,49.50
2018-08-06T17:42:44.324Z,50.70
2018-08-06T17:45:19.458Z,51.20
2018-08-06T17:47:48.091Z,50.30
2018-08-06T17:50:19.833Z,50.80
2018-08-06T17:55:19.490Z,52.20
2018-08-06T17:57:48.583Z,51.30
2018-08-06T18:00:18.097Z,52.00
2018-08-06T18:02:47.175Z,51.40
2018-08-06T18:05:16.694Z,51.20
2018-08-06T18:07:45.790Z,50.30
2018-08-06T18:10:15.833Z,52.00
2018-08-06T18:12:45.227Z,50.90
2018-08-06T18:15:13.942Z,51.50
2018-08-06T18:17:42.566Z,50.90
2018-08-06T18:20:13.384Z,51.30
2018-08-06T18:22:42.147Z,51.90
2018-08-06T18:25:12.774Z,51.00
2018-08-06T18:27:41.970Z,52.20
2018-08-06T18:32:42.199Z,52.40
2018-08-06T18:35:12.747Z,52.20
2018-08-06T18:37:41.314Z,52.10
2018-08-06T18:40:10.711Z,52.00
2018-08-06T18:42:39.316Z,52.10
2018-08-06T18:45:11.613Z,52.30
2018-08-06T18:47:40.745Z,52.00
2018-08-06T18:50:10.989Z,53.30
2018-08-06T18:52:39.763Z,52.70
2018-08-06T18:55:09.671Z,53.30
2018-08-06T18:57:38.533Z,52.90
2018-08-06T19:00:09.824Z,54.00
2018-08-06T19:02:38.419Z,52.90
2018-08-06T19:05:07.891Z,52.90
2018-08-06T19:07:36.620Z,53.40
2018-08-06T19:10:06.255Z,53.20
2018-08-06T19:18:43.055Z,54.00
2018-08-06T19:21:11.671Z,55.30
2018-08-06T19:23:40.790Z,54.70
2018-08-06T19:26:09.494Z,53.70
2018-08-06T19:28:38.068Z,54.20
2018-08-06T19:31:11.951Z,56.00
2018-08-06T19:33:40.826Z,54.50
2018-08-06T19:36:09.387Z,55.70
2018-08-06T19:38:37.971Z,54.50
2018-08-06T19:41:06.843Z,55.00
2018-08-06T19:43:38.267Z,55.30
2018-08-06T19:46:07.810Z,57.00
2018-08-06T19:48:36.655Z,57.50
2018-08-06T19:51:05.288Z,56.60
2018-08-06T19:53:33.866Z,56.00
2018-08-06T19:56:07.731Z,58.40
2018-08-06T19:58:36.331Z,56.40
2018-08-06T20:01:05.133Z,58.20
2018-08-06T20:03:33.850Z,58.50
2018-08-06T20:08:30.722Z,59.90
2018-08-06T20:10:59.301Z,59.60
2018-08-06T20:15:56.233Z,60.80
2018-08-06T20:18:25.115Z,61.60
2018-08-06T20:20:53.760Z,60.50
2018-08-06T20:23:22.351Z,59.50
2018-08-06T20:25:51.293Z,61.90
2018-08-06T20:28:19.916Z,62.80
2018-08-06T20:30:48.567Z,63.60
2018-08-06T20:33:17.142Z,63.80
2018-08-06T20:35:45.891Z,64.30
2018-08-06T20:38:14.575Z,65.40
2018-08-06T20:40:43.123Z,65.00
2018-08-06T20:48:08.231Z,64.80
2018-08-06T20:50:36.815Z,64.80
2018-08-06T20:53:05.536Z,64.70
2018-08-06T20:55:34.090Z,65.10
2018-08-06T20:58:02.659Z,66.10
2018-08-06T21:00:31.347Z,67.20
2018-08-06T21:02:59.940Z,66.40
2018-08-06T21:05:28.594Z,67.30
2018-08-06T21:07:57.191Z,67.30
2018-08-06T21:10:25.815Z,68.20
2018-08-06T21:12:54.538Z,69.60
2018-08-06T21:15:23.102Z,69.10
2018-08-06T21:17:51.729Z,68.60
2018-08-06T21:20:20.326Z,69.00
2018-08-06T21:22:49.791Z,68.80
2018-08-06T21:25:18.462Z,69.90
2018-08-06T21:27:48.018Z,69.50
2018-08-06T21:30:19.822Z,70.50
2018-08-06T21:32:56.023Z,72.50
2018-08-06T21:35:25.928Z,72.30
2018-08-06T21:37:55.429Z,71.90
2018-08-06T21:40:24.937Z,71.60
2018-08-06T21:42:53.805Z,71.40
2018-08-06T21:45:22.382Z,70.80
2018-08-06T21:47:51.430Z,72.30
2018-08-06T21:50:20.054Z,73.70
2018-08-06T21:55:16.934Z,72.70
2018-08-06T21:57:45.590Z,73.90
2018-08-06T22:00:26.239Z,77.40
2018-08-06T22:02:54.819Z,76.20
2018-08-06T22:05:23.597Z,76.60
2018-08-06T22:07:52.236Z,77.90
2018-08-06T22:10:20.899Z,79.00
2018-08-06T22:12:49.542Z,80.50
2018-08-06T22:15:18.135Z,80.80
2018-08-06T22:17:46.705Z,78.20
2018-08-06T22:20:15.298Z,78.00
2018-08-06T22:22:44.192Z,78.20
2018-08-06T22:25:12.792Z,77.00
2018-08-06T22:27:41.449Z,80.50
2018-08-06T22:30:10.913Z,79.10
2018-08-06T22:32:39.615Z,79.70
2018-08-06T22:35:10.791Z,78.90
2018-08-06T22:37:39.660Z,82.30
2018-08-06T22:40:10.086Z,82.90
2018-08-06T22:42:39.080Z,79.60
2018-08-06T22:45:09.216Z,80.90
2018-08-06T22:47:37.792Z,79.30
2018-08-06T22:50:08.539Z,83.60
2018-08-06T22:52:37.420Z,83.50
2018-08-06T22:55:06.870Z,82.50
2018-08-06T22:57:35.562Z,83.30
2018-08-06T23:00:05.214Z,83.70
2018-08-06T23:05:02.028Z,84.50
2018-08-06T23:07:30.656Z,85.20
2018-08-06T23:09:59.259Z,84.70
2018-08-06T23:12:27.832Z,89.20
2018-08-06T23:14:56.464Z,87.20
2018-08-06T23:19:53.295Z,91.20
2018-08-06T23:22:21.942Z,90.40
2018-08-06T23:24:50.563Z,91.60
2018-08-06T23:27:19.143Z,92.20
2018-08-06T23:29:47.703Z,92.50
2018-08-06T23:32:16.475Z,92.10
2018-08-06T23:34:45.075Z,94.20
2018-08-06T23:37:13.657Z,94.80
2018-08-06T23:39:42.470Z,94.80
2018-08-06T23:42:11.083Z,95.20
2018-08-06T23:44:39.686Z,96.40
2018-08-06T23:47:08.266Z,98.00
2018-08-06T23:49:36.826Z,98.10
2018-08-06T23:52:06.047Z,96.30
2018-08-06T23:54:34.607Z,97.10
2018-08-06T23:57:03.347Z,97.80
2018-08-06T23:59:31.933Z,98.60
